sensor_id;sensor_type;location;lat;lon;timestamp;P1;durP1;ratioP1;P2;durP2;ratioP2
62353;SDS011;48391;49.184;2.418;2023-01-04T00:00:15;4.25;;;1.38;;
62353;SDS011;48391;49.184;2.418;2023-01-04T00:02:41;3.08;;;1.60;;
62353;SDS011;48391;49.184;2.418;2023-01-04T00:05:07;1.88;;;0.80;;
62353;SDS011;48391;49.184;2.418;2023-01-04T00:07:33;7.75;;;1.65;;
62353;SDS011;48391;49.184;2.418;2023-01-04T00:09:59;2.58;;;1.00;;
62353;SDS011;48391;49.184;2.418;2023-01-04T00:12:25;2.25;;;1.00;;
62353;SDS011;48391;49.184;2.418;2023-01-04T00:14:51;2.63;;;0.75;;
62353;SDS011;48391;49.184;2.418;2023-01-04T00:17:17;2.42;;;0.73;;
62353;SDS011;48391;49.184;2.418;2023-01-04T00:19:43;2.92;;;0.98;;
62353;SDS011;48391;49.184;2.418;2023-01-04T00:22:09;2.88;;;0.90;;
62353;SDS011;48391;49.184;2.418;2023-01-04T00:24:35;3.58;;;1.05;;
62353;SDS011;48391;49.184;2.418;2023-01-04T00:27:01;1.77;;;0.90;;
62353;SDS011;48391;49.184;2.418;2023-01-04T00:29:27;1.48;;;0.52;;
62353;SDS011;48391;49.184;2.418;2023-01-04T00:31:53;2.40;;;0.70;;
62353;SDS011;48391;49.184;2.418;2023-01-04T00:34:19;1.92;;;0.50;;
62353;SDS011;48391;49.184;2.418;2023-01-04T00:36:45;2.88;;;0.75;;
62353;SDS011;48391;49.184;2.418;2023-01-04T00:39:12;2.08;;;0.90;;
62353;SDS011;48391;49.184;2.418;2023-01-04T00:41:46;2.35;;;0.52;;
62353;SDS011;48391;49.184;2.418;2023-01-04T00:44:13;2.33;;;0.70;;
62353;SDS011;48391;49.184;2.418;2023-01-04T00:46:39;4.20;;;1.17;;
62353;SDS011;48391;49.184;2.418;2023-01-04T00:49:06;3.70;;;0.88;;
62353;SDS011;48391;49.184;2.418;2023-01-04T00:51:33;1.85;;;0.45;;
62353;SDS011;48391;49.184;2.418;2023-01-04T00:54:00;2.58;;;0.40;;
62353;SDS011;48391;49.184;2.418;2023-01-04T00:56:27;1.45;;;0.57;;
62353;SDS011;48391;49.184;2.418;2023-01-04T00:58:57;1.45;;;0.60;;
62353;SDS011;48391;49.184;2.418;2023-01-04T01:01:23;3.30;;;1.10;;
62353;SDS011;48391;49.184;2.418;2023-01-04T01:03:53;3.15;;;0.95;;
62353;SDS011;48391;49.184;2.418;2023-01-04T01:06:19;4.25;;;1.13;;
62353;SDS011;48391;49.184;2.418;2023-01-04T01:08:45;0.95;;;0.52;;
62353;SDS011;48391;49.184;2.418;2023-01-04T01:11:11;0.85;;;0.55;;
62353;SDS011;48391;49.184;2.418;2023-01-04T01:13:38;0.73;;;0.40;;
62353;SDS011;48391;49.184;2.418;2023-01-04T01:16:05;1.55;;;0.52;;
62353;SDS011;48391;49.184;2.418;2023-01-04T01:18:32;1.90;;;1.02;;
62353;SDS011;48391;49.184;2.418;2023-01-04T01:20:58;1.02;;;0.60;;
62353;SDS011;48391;49.184;2.418;2023-01-04T01:23:24;0.93;;;0.40;;
62353;SDS011;48391;49.184;2.418;2023-01-04T01:25:50;3.65;;;0.50;;
62353;SDS011;48391;49.184;2.418;2023-01-04T01:28:16;1.73;;;0.28;;
62353;SDS011;48391;49.184;2.418;2023-01-04T01:30:43;3.08;;;0.57;;
62353;SDS011;48391;49.184;2.418;2023-01-04T01:33:09;2.33;;;0.80;;
62353;SDS011;48391;49.184;2.418;2023-01-04T01:35:35;1.63;;;0.70;;
62353;SDS011;48391;49.184;2.418;2023-01-04T01:38:01;3.30;;;0.57;;
62353;SDS011;48391;49.184;2.418;2023-01-04T01:40:27;1.83;;;0.60;;
62353;SDS011;48391;49.184;2.418;2023-01-04T01:42:53;1.85;;;0.40;;
62353;SDS011;48391;49.184;2.418;2023-01-04T01:47:51;1.50;;;0.70;;
62353;SDS011;48391;49.184;2.418;2023-01-04T01:50:25;5.97;;;1.10;;
62353;SDS011;48391;49.184;2.418;2023-01-04T01:52:53;1.38;;;0.65;;
62353;SDS011;48391;49.184;2.418;2023-01-04T01:55:21;3.63;;;1.08;;
62353;SDS011;48391;49.184;2.418;2023-01-04T01:57:47;1.98;;;0.63;;
62353;SDS011;48391;49.184;2.418;2023-01-04T02:00:14;2.05;;;0.50;;
62353;SDS011;48391;49.184;2.418;2023-01-04T02:02:47;0.47;;;0.40;;
62353;SDS011;48391;49.184;2.418;2023-01-04T02:05:14;1.85;;;0.63;;
62353;SDS011;48391;49.184;2.418;2023-01-04T16:06:17;4.70;;;1.83;;
62353;SDS011;48391;49.184;2.418;2023-01-04T16:08:43;3.35;;;1.58;;
62353;SDS011;48391;49.184;2.418;2023-01-04T16:11:20;4.32;;;1.70;;
62353;SDS011;48391;49.184;2.418;2023-01-04T16:13:47;4.68;;;1.65;;
62353;SDS011;48391;49.184;2.418;2023-01-04T16:16:14;3.15;;;2.10;;
62353;SDS011;48391;49.184;2.418;2023-01-04T16:18:44;3.22;;;1.38;;
62353;SDS011;48391;49.184;2.418;2023-01-04T16:21:10;2.72;;;1.50;;
62353;SDS011;48391;49.184;2.418;2023-01-04T16:23:36;7.28;;;1.70;;
62353;SDS011;48391;49.184;2.418;2023-01-04T16:26:09;2.92;;;1.17;;
62353;SDS011;48391;49.184;2.418;2023-01-04T16:28:36;2.33;;;0.65;;
62353;SDS011;48391;49.184;2.418;2023-01-04T16:31:02;1.73;;;0.65;;
62353;SDS011;48391;49.184;2.418;2023-01-04T16:33:29;2.50;;;0.95;;
62353;SDS011;48391;49.184;2.418;2023-01-04T16:36:02;1.50;;;0.82;;
62353;SDS011;48391;49.184;2.418;2023-01-04T16:38:28;2.67;;;1.60;;
62353;SDS011;48391;49.184;2.418;2023-01-04T16:40:55;1.38;;;1.15;;
62353;SDS011;48391;49.184;2.418;2023-01-04T16:43:21;8.30;;;1.20;;
62353;SDS011;48391;49.184;2.418;2023-01-04T16:45:47;2.25;;;1.10;;
62353;SDS011;48391;49.184;2.418;2023-01-04T16:48:13;2.88;;;0.90;;
62353;SDS011;48391;49.184;2.418;2023-01-04T16:50:39;2.60;;;0.73;;
62353;SDS011;48391;49.184;2.418;2023-01-04T16:53:05;1.23;;;1.13;;
62353;SDS011;48391;49.184;2.418;2023-01-04T16:55:31;4.50;;;0.90;;
62353;SDS011;48391;49.184;2.418;2023-01-04T16:57:58;2.28;;;0.85;;
62353;SDS011;48391;49.184;2.418;2023-01-04T17:00:24;2.60;;;0.75;;
62353;SDS011;48391;49.184;2.418;2023-01-04T17:02:50;1.25;;;0.20;;
62353;SDS011;48391;49.184;2.418;2023-01-04T17:05:16;1.70;;;0.57;;
62353;SDS011;48391;49.184;2.418;2023-01-04T17:07:42;1.65;;;0.57;;
62353;SDS011;48391;49.184;2.418;2023-01-04T17:10:08;1.63;;;0.73;;
62353;SDS011;48391;49.184;2.418;2023-01-04T17:12:34;0.65;;;0.38;;
62353;SDS011;48391;49.184;2.418;2023-01-04T17:15:00;1.73;;;1.20;;
62353;SDS011;48391;49.184;2.418;2023-01-04T17:17:26;0.60;;;0.50;;
62353;SDS011;48391;49.184;2.418;2023-01-04T17:19:52;1.23;;;0.40;;
62353;SDS011;48391;49.184;2.418;2023-01-04T17:22:18;1.25;;;0.90;;
62353;SDS011;48391;49.184;2.418;2023-01-04T17:24:44;1.95;;;0.90;;
62353;SDS011;48391;49.184;2.418;2023-01-04T17:27:10;1.80;;;0.80;;
62353;SDS011;48391;49.184;2.418;2023-01-04T17:29:36;4.43;;;0.85;;
62353;SDS011;48391;49.184;2.418;2023-01-04T17:32:03;1.10;;;0.35;;
62353;SDS011;48391;49.184;2.418;2023-01-04T17:34:29;1.85;;;0.57;;
62353;SDS011;48391;49.184;2.418;2023-01-04T17:36:55;1.33;;;0.50;;
62353;SDS011;48391;49.184;2.418;2023-01-04T17:39:21;1.35;;;0.80;;
62353;SDS011;48391;49.184;2.418;2023-01-04T17:41:47;0.73;;;0.30;;
62353;SDS011;48391;49.184;2.418;2023-01-04T17:44:13;2.60;;;0.82;;
62353;SDS011;48391;49.184;2.418;2023-01-04T17:46:39;0.30;;;0.20;;
62353;SDS011;48391;49.184;2.418;2023-01-04T17:49:06;1.08;;;0.70;;
62353;SDS011;48391;49.184;2.418;2023-01-04T17:51:33;1.00;;;0.25;;
62353;SDS011;48391;49.184;2.418;2023-01-04T17:54:02;0.85;;;0.20;;
62353;SDS011;48391;49.184;2.418;2023-01-04T17:56:29;0.52;;;0.28;;
62353;SDS011;48391;49.184;2.418;2023-01-04T17:58:58;0.93;;;0.50;;
62353;SDS011;48391;49.184;2.418;2023-01-04T18:01:25;0.50;;;0.40;;
62353;SDS011;48391;49.184;2.418;2023-01-04T18:03:52;1.00;;;0.10;;
62353;SDS011;48391;49.184;2.418;2023-01-04T18:06:19;0.38;;;0.20;;
62353;SDS011;48391;49.184;2.418;2023-01-04T18:08:46;0.35;;;0.10;;
62353;SDS011;48391;49.184;2.418;2023-01-04T18:11:12;2.30;;;0.20;;
62353;SDS011;48391;49.184;2.418;2023-01-04T18:13:40;0.75;;;0.40;;
62353;SDS011;48391;49.184;2.418;2023-01-04T18:16:08;0.30;;;0.20;;
62353;SDS011;48391;49.184;2.418;2023-01-04T18:18:35;0.90;;;0.43;;
62353;SDS011;48391;49.184;2.418;2023-01-04T18:21:21;4.78;;;0.47;;
62353;SDS011;48391;49.184;2.418;2023-01-04T18:23:50;3.38;;;0.80;;
62353;SDS011;48391;49.184;2.418;2023-01-04T18:26:16;1.13;;;1.02;;
62353;SDS011;48391;49.184;2.418;2023-01-04T18:28:42;0.57;;;0.15;;
62353;SDS011;48391;49.184;2.418;2023-01-04T18:31:10;0.35;;;0.10;;
62353;SDS011;48391;49.184;2.418;2023-01-04T18:33:36;0.38;;;0.30;;
62353;SDS011;48391;49.184;2.418;2023-01-04T18:36:03;0.77;;;0.60;;
62353;SDS011;48391;49.184;2.418;2023-01-04T18:38:29;0.75;;;0.17;;
62353;SDS011;48391;49.184;2.418;2023-01-04T18:40:55;1.23;;;0.60;;
62353;SDS011;48391;49.184;2.418;2023-01-04T18:43:21;0.28;;;0.28;;
62353;SDS011;48391;49.184;2.418;2023-01-04T18:45:47;1.20;;;0.22;;
62353;SDS011;48391;49.184;2.418;2023-01-04T18:48:13;0.50;;;0.10;;
62353;SDS011;48391;49.184;2.418;2023-01-04T18:50:39;0.55;;;0.13;;
62353;SDS011;48391;49.184;2.418;2023-01-04T18:53:05;0.73;;;0.40;;
62353;SDS011;48391;49.184;2.418;2023-01-04T18:55:31;0.55;;;0.20;;
62353;SDS011;48391;49.184;2.418;2023-01-04T18:57:57;0.30;;;0.20;;
62353;SDS011;48391;49.184;2.418;2023-01-04T19:00:23;0.20;;;0.20;;
62353;SDS011;48391;49.184;2.418;2023-01-04T19:02:54;1.13;;;0.40;;
62353;SDS011;48391;49.184;2.418;2023-01-04T19:05:20;2.83;;;1.00;;
62353;SDS011;48391;49.184;2.418;2023-01-04T19:07:52;2.22;;;1.23;;
62353;SDS011;48391;49.184;2.418;2023-01-04T19:10:21;3.10;;;1.10;;
62353;SDS011;48391;49.184;2.418;2023-01-04T19:12:47;1.77;;;0.82;;
62353;SDS011;48391;49.184;2.418;2023-01-04T19:15:13;1.17;;;0.70;;
62353;SDS011;48391;49.184;2.418;2023-01-04T19:17:39;1.08;;;0.30;;
62353;SDS011;48391;49.184;2.418;2023-01-04T19:20:06;0.50;;;0.20;;
62353;SDS011;48391;49.184;2.418;2023-01-04T19:22:32;2.80;;;1.13;;
62353;SDS011;48391;49.184;2.418;2023-01-04T19:24:58;1.38;;;0.88;;
62353;SDS011;48391;49.184;2.418;2023-01-04T19:27:24;2.03;;;1.10;;
62353;SDS011;48391;49.184;2.418;2023-01-04T19:29:50;2.35;;;1.48;;
62353;SDS011;48391;49.184;2.418;2023-01-04T19:32:17;1.73;;;0.90;;
62353;SDS011;48391;49.184;2.418;2023-01-04T19:34:45;3.00;;;0.90;;
62353;SDS011;48391;49.184;2.418;2023-01-04T19:37:11;2.47;;;0.88;;
62353;SDS011;48391;49.184;2.418;2023-01-04T19:39:37;2.78;;;0.65;;
